BLACK BUTTE (BLB)

Elevation: 426' · STONY CR basin · Operator: US Army Corps of Engineers

Provisional data, subject to change.
Query executed Sunday at 10:10:25   clock

Select a sensor type for a plot of data.
Note: Reservoir Flows are daily averages.

Earlier

Date RES ELE    STORAGE    RES CHG    TOC STO    ABV TOC    OUTFLOW    INFLOW    PPT INC    TEMP MN    TEMP MX    EVP PAN   
 FEET   AF   AF   AF   AF   CFS   CFS   INCHES   DEG F   DEG F   INCHES  
05/27/2016 460.63 85991 -277 136200 -50209 180 69 0.14 16 32 0.28
05/28/2016 460.54 85680 -311 136200 -50520 234 109 0.11 19 34 0.32
05/29/2016 460.45 85369 -311 136200 -50831 292 163 0.02 16 35 0.28
05/30/2016 460.38 85128 -241 136200 -51072 258 167 0.20 20 38 0.30
05/31/2016 460.28 84784 -344 136200 -51416 266 127 0.16 21 41 0.33
06/01/2016 460.18 84440 -344 136200 -51760 269 130 0.01 20 36 0.33
06/02/2016 460.11 84201 -239 136200 -51999 234 144 0.00 18 38 0.29
06/03/2016 460.05 83995 -206 136200 -52205 208 138 0.02 22 42 0.33
06/04/2016 459.98 83756 -239 136200 -52444 209 111 0.00 21 36 0.22
06/05/2016 459.92 83551 -205 136200 -52649 208 135 0.00 18 38 0.30
06/06/2016 459.84 83279 -272 136200 -52921 226 126 0.00 22 39 0.36
06/07/2016 459.76 83006 -273 136200 -53194 211 103 0.00 18 32 0.29
06/08/2016 459.68 82735 -271 136200 -53465 215 102 0.00 15 30 0.23
06/09/2016 459.59 82430 -305 136200 -53770 238 112 0.00 14 28 0.27
06/10/2016 459.48 82057 -373 136200 -54143 270 109 0.00 16 28 0.26
06/11/2016 459.31 81484 -573 136200 -54716 279 27 0.01 20 33 0.36
06/12/2016 459.18 81047 -437 136200 -55153 285 103 0.09 21 36 0.37
06/13/2016 459.06 80644 -403 136200 -55556 256 81 0.00 16 28 0.28
06/14/2016 458.99 80410 -234 136200 -55790 221 126 0.19 14 26 0.22
06/15/2016 458.91 80142 -268 136200 -56058 195 77 0.00 12 20 0.17
06/16/2016 458.85 79942 -200 136200 -56258 187 108 0.00 11 23 0.22
06/17/2016 458.81 79809 -133 136200 -56391 204 149 0.15 15 22 0.11
06/18/2016 458.77 79676 -133 136200 -56524 220 179 0.44 14 26 0.25
06/19/2016 458.70 79443 -233 136200 -56757 188 102 0.33 16 32 0.31
06/20/2016 458.63 79210 -233 136200 -56990 199 111 0.12 18 34 0.29
06/21/2016 458.54 78912 -298 136200 -57288 233 114 0.07 21 37 0.31
06/22/2016 458.40 78449 -463 136200 -57751 304 101 0.00 19 34 0.31
06/23/2016 458.24 77922 -527 136200 -58278 290 55 0.00 17 33 0.30
06/24/2016 458.07 77363 -559 136200 -58837 286 34 0.00 16 35 0.30
06/25/2016 457.89 76775 -588 136200 -59425 264 2 0.00 25 40 0.34
06/26/2016 -- -- -- -- -- -- -- -- -- -- --

Later | Latest

Warning! This data is preliminary and subject to revision.

Show BLB Map | Plot BLB Data | 1 Month BLB Data | Real-Time BLB Data | BLB Info